sensor_id;sensor_type;location;lat;lon;timestamp;temperature;humidity
1570;DHT22;778;50.120;8.698;2022-09-12T07:00:49;15.30;99.90
1570;DHT22;778;50.120;8.698;2022-09-12T07:03:24;15.40;99.90
1570;DHT22;778;50.120;8.698;2022-09-12T07:05:52;15.50;99.90
1570;DHT22;778;50.120;8.698;2022-09-12T07:08:21;15.50;99.90
1570;DHT22;778;50.120;8.698;2022-09-12T07:10:49;15.60;99.90
1570;DHT22;778;50.120;8.698;2022-09-12T07:13:18;15.80;99.90
1570;DHT22;778;50.120;8.698;2022-09-12T07:15:48;15.90;99.90
1570;DHT22;778;50.120;8.698;2022-09-12T07:18:17;15.90;99.90
1570;DHT22;778;50.120;8.698;2022-09-12T07:20:46;16.50;99.90
1570;DHT22;778;50.120;8.698;2022-09-12T07:23:15;17.10;99.90
1570;DHT22;778;50.120;8.698;2022-09-12T07:25:51;17.50;99.90
1570;DHT22;778;50.120;8.698;2022-09-12T07:28:20;18.00;99.90
1570;DHT22;778;50.120;8.698;2022-09-12T07:30:50;18.40;99.90
1570;DHT22;778;50.120;8.698;2022-09-12T07:33:19;18.70;99.90
1570;DHT22;778;50.120;8.698;2022-09-12T07:35:48;18.80;99.90
1570;DHT22;778;50.120;8.698;2022-09-12T07:38:16;19.00;99.90
1570;DHT22;778;50.120;8.698;2022-09-12T07:40:45;19.40;99.90
1570;DHT22;778;50.120;8.698;2022-09-12T07:43:13;19.50;99.90
1570;DHT22;778;50.120;8.698;2022-09-12T07:45:42;19.40;99.90
1570;DHT22;778;50.120;8.698;2022-09-12T07:48:11;19.70;99.90
1570;DHT22;778;50.120;8.698;2022-09-12T07:50:40;20.00;99.90
1570;DHT22;778;50.120;8.698;2022-09-12T07:53:11;20.00;99.90
1570;DHT22;778;50.120;8.698;2022-09-12T07:55:39;20.30;99.90
1570;DHT22;778;50.120;8.698;2022-09-12T07:58:07;20.30;99.90
1570;DHT22;778;50.120;8.698;2022-09-12T08:00:35;20.20;99.90
1570;DHT22;778;50.120;8.698;2022-09-12T08:03:04;20.40;99.90
1570;DHT22;778;50.120;8.698;2022-09-12T08:05:34;20.30;99.90
1570;DHT22;778;50.120;8.698;2022-09-12T08:08:03;20.70;99.90
1570;DHT22;778;50.120;8.698;2022-09-12T08:10:31;21.10;99.90
1570;DHT22;778;50.120;8.698;2022-09-12T08:12:59;21.20;99.90
1570;DHT22;778;50.120;8.698;2022-09-12T08:15:29;21.20;99.90
1570;DHT22;778;50.120;8.698;2022-09-12T08:17:58;21.10;99.90
1570;DHT22;778;50.120;8.698;2022-09-12T08:20:26;21.20;99.90
1570;DHT22;778;50.120;8.698;2022-09-12T08:22:56;21.50;99.90
1570;DHT22;778;50.120;8.698;2022-09-12T08:25:24;21.90;99.90
1570;DHT22;778;50.120;8.698;2022-09-12T08:27:52;22.10;99.90
1570;DHT22;778;50.120;8.698;2022-09-12T08:30:21;21.90;99.90
1570;DHT22;778;50.120;8.698;2022-09-12T08:32:49;21.80;99.90
1570;DHT22;778;50.120;8.698;2022-09-12T08:35:18;21.80;99.90
1570;DHT22;778;50.120;8.698;2022-09-12T08:37:46;22.10;99.90
1570;DHT22;778;50.120;8.698;2022-09-12T08:40:16;22.10;99.90
1570;DHT22;778;50.120;8.698;2022-09-12T08:42:53;22.40;99.90
1570;DHT22;778;50.120;8.698;2022-09-12T08:45:31;22.30;99.90
1570;DHT22;778;50.120;8.698;2022-09-12T08:48:06;22.40;99.90
1570;DHT22;778;50.120;8.698;2022-09-12T08:50:36;22.40;99.90
1570;DHT22;778;50.120;8.698;2022-09-12T08:53:19;22.30;99.90
1570;DHT22;778;50.120;8.698;2022-09-12T08:55:52;22.50;99.90
1570;DHT22;778;50.120;8.698;2022-09-12T08:58:26;22.50;99.90
1570;DHT22;778;50.120;8.698;2022-09-12T09:01:02;22.50;99.90
1570;DHT22;778;50.120;8.698;2022-09-12T09:03:45;22.40;99.90
1570;DHT22;778;50.120;8.698;2022-09-12T09:06:26;22.30;99.90
1570;DHT22;778;50.120;8.698;2022-09-12T09:09:06;22.30;99.90
1570;DHT22;778;50.120;8.698;2022-09-12T09:11:49;22.30;99.90
1570;DHT22;778;50.120;8.698;2022-09-12T09:14:41;22.40;99.90
1570;DHT22;778;50.120;8.698;2022-09-12T09:17:23;22.30;99.90
1570;DHT22;778;50.120;8.698;2022-09-12T09:19:57;22.50;99.90
1570;DHT22;778;50.120;8.698;2022-09-12T09:22:37;22.70;99.90
1570;DHT22;778;50.120;8.698;2022-09-12T09:25:15;23.00;99.90
1570;DHT22;778;50.120;8.698;2022-09-12T09:27:55;23.40;99.90
1570;DHT22;778;50.120;8.698;2022-09-12T09:30:25;23.70;99.90
1570;DHT22;778;50.120;8.698;2022-09-12T09:32:56;23.70;99.90
1570;DHT22;778;50.120;8.698;2022-09-12T09:35:36;23.50;99.90
1570;DHT22;778;50.120;8.698;2022-09-12T09:38:17;23.40;99.90
1570;DHT22;778;50.120;8.698;2022-09-12T09:41:00;23.50;99.90
1570;DHT22;778;50.120;8.698;2022-09-12T09:43:38;23.60;99.90
1570;DHT22;778;50.120;8.698;2022-09-12T09:46:07;23.80;99.90
1570;DHT22;778;50.120;8.698;2022-09-12T09:48:40;23.90;99.90
1570;DHT22;778;50.120;8.698;2022-09-12T09:51:14;24.00;99.90
1570;DHT22;778;50.120;8.698;2022-09-12T09:53:47;24.00;99.90
1570;DHT22;778;50.120;8.698;2022-09-12T09:56:26;24.10;99.90
1570;DHT22;778;50.120;8.698;2022-09-12T09:59:07;24.10;99.90
1570;DHT22;778;50.120;8.698;2022-09-12T10:01:43;23.80;99.90
1570;DHT22;778;50.120;8.698;2022-09-12T10:04:18;23.70;99.90
1570;DHT22;778;50.120;8.698;2022-09-12T10:06:50;23.50;99.90
1570;DHT22;778;50.120;8.698;2022-09-12T10:09:23;23.40;99.90
1570;DHT22;778;50.120;8.698;2022-09-12T10:11:54;23.20;99.90
1570;DHT22;778;50.120;8.698;2022-09-12T10:14:34;23.40;99.90
1570;DHT22;778;50.120;8.698;2022-09-12T10:17:25;23.40;99.90
1570;DHT22;778;50.120;8.698;2022-09-12T10:20:00;23.50;99.90
1570;DHT22;778;50.120;8.698;2022-09-12T10:22:49;23.60;99.90
1570;DHT22;778;50.120;8.698;2022-09-12T10:25:18;23.80;99.90
1570;DHT22;778;50.120;8.698;2022-09-12T10:27:52;23.90;99.90
1570;DHT22;778;50.120;8.698;2022-09-12T10:30:24;24.10;99.90
1570;DHT22;778;50.120;8.698;2022-09-12T10:32:57;24.30;99.90
1570;DHT22;778;50.120;8.698;2022-09-12T10:35:44;24.20;99.90
1570;DHT22;778;50.120;8.698;2022-09-12T10:38:20;24.20;99.90
1570;DHT22;778;50.120;8.698;2022-09-12T10:40:55;24.20;99.90
1570;DHT22;778;50.120;8.698;2022-09-12T10:43:27;24.20;99.90
1570;DHT22;778;50.120;8.698;2022-09-12T10:46:19;24.20;99.90
1570;DHT22;778;50.120;8.698;2022-09-12T10:49:21;24.30;99.90
1570;DHT22;778;50.120;8.698;2022-09-12T10:51:52;24.00;99.90
1570;DHT22;778;50.120;8.698;2022-09-12T10:54:23;24.10;99.90
1570;DHT22;778;50.120;8.698;2022-09-12T10:57:27;24.20;99.90
1570;DHT22;778;50.120;8.698;2022-09-12T11:00:10;24.20;99.90
1570;DHT22;778;50.120;8.698;2022-09-12T11:02:50;24.30;99.90
1570;DHT22;778;50.120;8.698;2022-09-12T11:05:32;24.30;99.90
1570;DHT22;778;50.120;8.698;2022-09-12T11:08:14;24.30;99.90
1570;DHT22;778;50.120;8.698;2022-09-12T11:11:00;24.40;99.90
1570;DHT22;778;50.120;8.698;2022-09-12T11:16:41;24.10;99.90
1570;DHT22;778;50.120;8.698;2022-09-12T11:19:28;24.50;99.10
1570;DHT22;778;50.120;8.698;2022-09-12T11:22:21;24.80;97.60
1570;DHT22;778;50.120;8.698;2022-09-12T11:25:14;24.70;97.50
1570;DHT22;778;50.120;8.698;2022-09-12T11:28:10;25.20;95.90
1570;DHT22;778;50.120;8.698;2022-09-12T11:31:00;25.40;94.20
1570;DHT22;778;50.120;8.698;2022-09-12T11:33:41;25.60;91.80
1570;DHT22;778;50.120;8.698;2022-09-12T11:36:26;25.50;92.20
1570;DHT22;778;50.120;8.698;2022-09-12T11:39:11;25.50;91.50
1570;DHT22;778;50.120;8.698;2022-09-12T11:41:42;25.40;91.00
1570;DHT22;778;50.120;8.698;2022-09-12T11:44:16;25.30;91.40
1570;DHT22;778;50.120;8.698;2022-09-12T11:46:46;25.20;90.90
1570;DHT22;778;50.120;8.698;2022-09-12T11:49:22;25.40;91.50
1570;DHT22;778;50.120;8.698;2022-09-12T11:52:03;25.60;91.00
1570;DHT22;778;50.120;8.698;2022-09-12T11:54:37;25.00;90.60
1570;DHT22;778;50.120;8.698;2022-09-12T11:57:13;24.90;91.60
1570;DHT22;778;50.120;8.698;2022-09-12T11:59:48;24.90;91.80
1570;DHT22;778;50.120;8.698;2022-09-12T12:02:25;24.90;92.10
1570;DHT22;778;50.120;8.698;2022-09-12T12:05:03;24.80;92.10
1570;DHT22;778;50.120;8.698;2022-09-12T12:07:51;24.70;91.20
1570;DHT22;778;50.120;8.698;2022-09-12T12:10:23;24.70;91.50
1570;DHT22;778;50.120;8.698;2022-09-12T12:12:55;24.80;93.00
1570;DHT22;778;50.120;8.698;2022-09-12T12:15:25;24.90;91.40
1570;DHT22;778;50.120;8.698;2022-09-12T12:18:03;24.80;92.10
1570;DHT22;778;50.120;8.698;2022-09-12T12:20:33;24.80;91.60
1570;DHT22;778;50.120;8.698;2022-09-12T12:23:03;24.50;91.10
1570;DHT22;778;50.120;8.698;2022-09-12T12:25:40;24.30;91.60
1570;DHT22;778;50.120;8.698;2022-09-12T12:31:23;24.50;92.40
1570;DHT22;778;50.120;8.698;2022-09-12T12:34:03;24.60;92.10
1570;DHT22;778;50.120;8.698;2022-09-12T12:36:47;24.70;90.30
1570;DHT22;778;50.120;8.698;2022-09-12T12:43:13;24.60;90.10
1570;DHT22;778;50.120;8.698;2022-09-12T12:46:04;24.90;91.30
1570;DHT22;778;50.120;8.698;2022-09-12T12:48:57;25.10;93.30
1570;DHT22;778;50.120;8.698;2022-09-12T12:51:56;25.20;93.70
1570;DHT22;778;50.120;8.698;2022-09-12T12:57:32;25.10;85.70
1570;DHT22;778;50.120;8.698;2022-09-12T13:00:31;24.80;88.80
1570;DHT22;778;50.120;8.698;2022-09-12T13:03:08;24.80;87.00
1570;DHT22;778;50.120;8.698;2022-09-12T13:05:39;24.60;86.80
1570;DHT22;778;50.120;8.698;2022-09-12T13:08:27;24.60;83.60
1570;DHT22;778;50.120;8.698;2022-09-12T13:11:00;24.90;82.70
1570;DHT22;778;50.120;8.698;2022-09-12T13:13:35;25.00;90.40
1570;DHT22;778;50.120;8.698;2022-09-12T13:16:07;25.10;85.80
1570;DHT22;778;50.120;8.698;2022-09-12T13:18:41;25.10;80.70
1570;DHT22;778;50.120;8.698;2022-09-12T13:21:13;24.70;87.90
1570;DHT22;778;50.120;8.698;2022-09-12T13:23:43;24.70;84.90
1570;DHT22;778;50.120;8.698;2022-09-12T13:26:20;24.70;82.30
1570;DHT22;778;50.120;8.698;2022-09-12T13:29:08;24.70;87.50
1570;DHT22;778;50.120;8.698;2022-09-12T13:31:37;24.80;91.10
1570;DHT22;778;50.120;8.698;2022-09-12T13:34:16;24.60;84.80
1570;DHT22;778;50.120;8.698;2022-09-12T13:37:17;24.50;84.40
1570;DHT22;778;50.120;8.698;2022-09-12T13:39:57;24.60;82.40
1570;DHT22;778;50.120;8.698;2022-09-12T13:42:39;24.50;82.00
1570;DHT22;778;50.120;8.698;2022-09-12T13:45:17;24.50;82.10
1570;DHT22;778;50.120;8.698;2022-09-12T13:47:50;24.50;81.40
1570;DHT22;778;50.120;8.698;2022-09-12T13:50:26;24.40;82.30
1570;DHT22;778;50.120;8.698;2022-09-12T13:52:58;24.50;81.80
1570;DHT22;778;50.120;8.698;2022-09-12T13:55:30;24.50;81.40
1570;DHT22;778;50.120;8.698;2022-09-12T13:58:01;24.50;80.90
1570;DHT22;778;50.120;8.698;2022-09-12T14:00:32;24.70;78.70
1570;DHT22;778;50.120;8.698;2022-09-12T14:03:23;24.60;82.10
1570;DHT22;778;50.120;8.698;2022-09-12T14:06:11;24.60;81.70
1570;DHT22;778;50.120;8.698;2022-09-12T14:08:46;24.40;80.60
1570;DHT22;778;50.120;8.698;2022-09-12T14:11:23;24.50;78.60
1570;DHT22;778;50.120;8.698;2022-09-12T14:13:54;24.50;80.20
1570;DHT22;778;50.120;8.698;2022-09-12T14:16:24;24.60;78.50
1570;DHT22;778;50.120;8.698;2022-09-12T14:18:53;24.50;84.90
1570;DHT22;778;50.120;8.698;2022-09-12T14:21:31;24.50;82.00
1570;DHT22;778;50.120;8.698;2022-09-12T14:24:03;24.60;82.00
1570;DHT22;778;50.120;8.698;2022-09-12T14:26:35;24.40;82.70
1570;DHT22;778;50.120;8.698;2022-09-12T14:29:07;24.40;81.60
1570;DHT22;778;50.120;8.698;2022-09-12T14:31:37;24.50;83.30
1570;DHT22;778;50.120;8.698;2022-09-12T14:34:10;24.40;80.70
1570;DHT22;778;50.120;8.698;2022-09-12T14:36:42;24.50;79.50
1570;DHT22;778;50.120;8.698;2022-09-12T14:39:22;24.50;79.00
1570;DHT22;778;50.120;8.698;2022-09-12T14:42:02;24.50;83.30
1570;DHT22;778;50.120;8.698;2022-09-12T14:44:33;24.50;83.90
1570;DHT22;778;50.120;8.698;2022-09-12T14:47:13;24.40;87.80
1570;DHT22;778;50.120;8.698;2022-09-12T14:49:45;24.40;85.60
1570;DHT22;778;50.120;8.698;2022-09-12T14:52:32;24.50;82.30
1570;DHT22;778;50.120;8.698;2022-09-12T14:55:02;24.60;80.70
1570;DHT22;778;50.120;8.698;2022-09-12T14:57:45;24.30;84.10
1570;DHT22;778;50.120;8.698;2022-09-12T15:00:22;24.40;80.60
1570;DHT22;778;50.120;8.698;2022-09-12T15:02:52;24.20;85.70
1570;DHT22;778;50.120;8.698;2022-09-12T15:05:24;24.20;86.80
1570;DHT22;778;50.120;8.698;2022-09-12T15:07:59;24.30;88.10
1570;DHT22;778;50.120;8.698;2022-09-12T15:10:29;24.20;87.40
1570;DHT22;778;50.120;8.698;2022-09-12T15:13:14;24.30;88.90
1570;DHT22;778;50.120;8.698;2022-09-12T15:15:46;24.20;90.50
1570;DHT22;778;50.120;8.698;2022-09-12T15:18:19;24.20;88.80
1570;DHT22;778;50.120;8.698;2022-09-12T15:20:49;24.30;89.70
1570;DHT22;778;50.120;8.698;2022-09-12T15:23:28;24.30;91.10
1570;DHT22;778;50.120;8.698;2022-09-12T15:25:58;24.30;92.30
1570;DHT22;778;50.120;8.698;2022-09-12T15:28:29;24.30;91.30
1570;DHT22;778;50.120;8.698;2022-09-12T15:31:06;24.30;87.00
1570;DHT22;778;50.120;8.698;2022-09-12T15:33:39;24.30;87.10
1570;DHT22;778;50.120;8.698;2022-09-12T15:36:13;24.30;87.30
1570;DHT22;778;50.120;8.698;2022-09-12T15:38:44;24.30;86.40
1570;DHT22;778;50.120;8.698;2022-09-12T15:41:15;24.40;84.30
1570;DHT22;778;50.120;8.698;2022-09-12T15:43:45;24.30;85.10
1570;DHT22;778;50.120;8.698;2022-09-12T15:46:15;24.30;86.90
1570;DHT22;778;50.120;8.698;2022-09-12T15:48:46;24.40;85.10
1570;DHT22;778;50.120;8.698;2022-09-12T15:51:17;24.30;86.30
1570;DHT22;778;50.120;8.698;2022-09-12T15:53:47;24.40;86.50
1570;DHT22;778;50.120;8.698;2022-09-12T15:56:18;24.30;88.60
1570;DHT22;778;50.120;8.698;2022-09-12T15:58:48;24.30;88.90
1570;DHT22;778;50.120;8.698;2022-09-12T16:01:26;24.30;90.80
1570;DHT22;778;50.120;8.698;2022-09-12T16:03:57;24.30;91.70
1570;DHT22;778;50.120;8.698;2022-09-12T16:06:25;24.30;90.90
1570;DHT22;778;50.120;8.698;2022-09-12T16:09:02;24.30;90.70
1570;DHT22;778;50.120;8.698;2022-09-12T16:11:30;24.30;90.70
1570;DHT22;778;50.120;8.698;2022-09-12T16:13:59;24.30;91.90
1570;DHT22;778;50.120;8.698;2022-09-12T16:16:27;24.20;91.50
1570;DHT22;778;50.120;8.698;2022-09-12T16:18:57;24.20;91.50
1570;DHT22;778;50.120;8.698;2022-09-12T16:21:25;24.20;91.40
1570;DHT22;778;50.120;8.698;2022-09-12T16:23:53;24.10;91.00
1570;DHT22;778;50.120;8.698;2022-09-12T16:26:22;24.00;91.40
1570;DHT22;778;50.120;8.698;2022-09-12T16:28:53;24.00;91.60
1570;DHT22;778;50.120;8.698;2022-09-12T16:31:23;24.00;92.20
1570;DHT22;778;50.120;8.698;2022-09-12T16:33:51;24.00;91.40
1570;DHT22;778;50.120;8.698;2022-09-12T16:36:22;23.90;92.70
1570;DHT22;778;50.120;8.698;2022-09-12T16:38:51;23.90;92.10
1570;DHT22;778;50.120;8.698;2022-09-12T16:41:21;23.90;92.40
1570;DHT22;778;50.120;8.698;2022-09-12T16:43:52;23.90;93.10
1570;DHT22;778;50.120;8.698;2022-09-12T16:46:22;23.80;93.20
1570;DHT22;778;50.120;8.698;2022-09-12T16:48:54;23.90;94.00
1570;DHT22;778;50.120;8.698;2022-09-12T16:51:25;23.90;93.70
1570;DHT22;778;50.120;8.698;2022-09-12T16:53:55;23.80;94.30
1570;DHT22;778;50.120;8.698;2022-09-12T16:56:24;23.80;94.10
1570;DHT22;778;50.120;8.698;2022-09-12T16:58:53;23.70;94.30
1570;DHT22;778;50.120;8.698;2022-09-12T17:01:22;23.70;95.50
1570;DHT22;778;50.120;8.698;2022-09-12T17:03:52;23.60;95.40
1570;DHT22;778;50.120;8.698;2022-09-12T17:06:21;23.60;95.00
1570;DHT22;778;50.120;8.698;2022-09-12T17:08:53;23.50;95.80
1570;DHT22;778;50.120;8.698;2022-09-12T17:11:25;23.50;96.00
1570;DHT22;778;50.120;8.698;2022-09-12T17:13:57;23.40;97.60
1570;DHT22;778;50.120;8.698;2022-09-12T17:16:32;23.40;96.80
1570;DHT22;778;50.120;8.698;2022-09-12T17:19:01;23.30;97.30
1570;DHT22;778;50.120;8.698;2022-09-12T17:21:31;23.30;97.80
1570;DHT22;778;50.120;8.698;2022-09-12T17:24:02;23.30;97.70
1570;DHT22;778;50.120;8.698;2022-09-12T17:26:30;23.20;98.60
1570;DHT22;778;50.120;8.698;2022-09-12T17:28:59;23.20;99.90
1570;DHT22;778;50.120;8.698;2022-09-12T17:31:28;23.10;99.90
1570;DHT22;778;50.120;8.698;2022-09-12T17:33:57;23.10;99.90
1570;DHT22;778;50.120;8.698;2022-09-12T17:36:27;23.10;99.90
1570;DHT22;778;50.120;8.698;2022-09-12T17:39:00;23.00;99.90
1570;DHT22;778;50.120;8.698;2022-09-12T17:41:31;23.00;99.90
1570;DHT22;778;50.120;8.698;2022-09-12T17:44:00;22.90;99.90
1570;DHT22;778;50.120;8.698;2022-09-12T17:46:30;22.80;99.90
1570;DHT22;778;50.120;8.698;2022-09-12T17:49:03;22.80;99.90
1570;DHT22;778;50.120;8.698;2022-09-12T17:51:32;22.70;99.90
1570;DHT22;778;50.120;8.698;2022-09-12T17:54:04;22.70;99.90
1570;DHT22;778;50.120;8.698;2022-09-12T17:56:37;22.60;99.90
1570;DHT22;778;50.120;8.698;2022-09-12T17:59:07;22.60;99.90
1570;DHT22;778;50.120;8.698;2022-09-12T18:01:37;22.50;99.90
1570;DHT22;778;50.120;8.698;2022-09-12T18:04:23;22.50;99.90
1570;DHT22;778;50.120;8.698;2022-09-12T18:06:53;22.50;99.90
1570;DHT22;778;50.120;8.698;2022-09-12T18:09:24;22.40;99.90
1570;DHT22;778;50.120;8.698;2022-09-12T18:11:54;22.40;99.90
1570;DHT22;778;50.120;8.698;2022-09-12T18:14:23;22.30;99.90
1570;DHT22;778;50.120;8.698;2022-09-12T18:16:53;22.30;99.90
1570;DHT22;778;50.120;8.698;2022-09-12T18:19:23;22.20;99.90
1570;DHT22;778;50.120;8.698;2022-09-12T18:21:52;22.20;99.90
1570;DHT22;778;50.120;8.698;2022-09-12T18:24:23;22.10;99.90
1570;DHT22;778;50.120;8.698;2022-09-12T18:26:52;22.10;99.90
1570;DHT22;778;50.120;8.698;2022-09-12T18:29:22;22.10;99.90
1570;DHT22;778;50.120;8.698;2022-09-12T18:31:51;22.00;99.90
1570;DHT22;778;50.120;8.698;2022-09-12T18:34:19;22.00;99.90
1570;DHT22;778;50.120;8.698;2022-09-12T18:36:49;21.90;99.90
1570;DHT22;778;50.120;8.698;2022-09-12T18:39:20;21.90;99.90
1570;DHT22;778;50.120;8.698;2022-09-12T18:41:54;21.80;99.90
1570;DHT22;778;50.120;8.698;2022-09-12T18:44:23;21.80;99.90
1570;DHT22;778;50.120;8.698;2022-09-12T18:46:51;21.80;99.90
1570;DHT22;778;50.120;8.698;2022-09-12T18:49:20;21.80;99.90
1570;DHT22;778;50.120;8.698;2022-09-12T18:51:48;21.70;99.90
1570;DHT22;778;50.120;8.698;2022-09-12T18:54:20;21.80;99.90
1570;DHT22;778;50.120;8.698;2022-09-12T18:56:49;21.70;99.90
1570;DHT22;778;50.120;8.698;2022-09-12T18:59:18;21.70;99.90
1570;DHT22;778;50.120;8.698;2022-09-12T19:01:47;21.70;99.90
1570;DHT22;778;50.120;8.698;2022-09-12T19:04:16;21.60;99.90
1570;DHT22;778;50.120;8.698;2022-09-12T19:06:46;21.60;99.90
1570;DHT22;778;50.120;8.698;2022-09-12T19:09:18;21.70;99.90
1570;DHT22;778;50.120;8.698;2022-09-12T19:11:47;21.60;99.90
1570;DHT22;778;50.120;8.698;2022-09-12T19:14:19;21.50;99.90
1570;DHT22;778;50.120;8.698;2022-09-12T19:16:50;21.50;99.90
1570;DHT22;778;50.120;8.698;2022-09-12T19:19:18;21.40;99.90
1570;DHT22;778;50.120;8.698;2022-09-12T19:21:47;21.30;99.90
1570;DHT22;778;50.120;8.698;2022-09-12T19:24:15;21.20;99.90
1570;DHT22;778;50.120;8.698;2022-09-12T19:26:44;21.20;99.90
1570;DHT22;778;50.120;8.698;2022-09-12T19:29:13;21.10;99.90
1570;DHT22;778;50.120;8.698;2022-09-12T19:31:44;21.10;99.90
1570;DHT22;778;50.120;8.698;2022-09-12T19:34:13;21.10;99.90
1570;DHT22;778;50.120;8.698;2022-09-12T19:36:41;21.10;99.90
1570;DHT22;778;50.120;8.698;2022-09-12T19:39:13;21.00;99.90
1570;DHT22;778;50.120;8.698;2022-09-12T19:41:43;21.00;99.90
1570;DHT22;778;50.120;8.698;2022-09-12T19:44:12;21.00;99.90
1570;DHT22;778;50.120;8.698;2022-09-12T19:46:41;20.90;99.90
1570;DHT22;778;50.120;8.698;2022-09-12T19:49:11;20.80;99.90
1570;DHT22;778;50.120;8.698;2022-09-12T19:51:40;20.80;99.90
1570;DHT22;778;50.120;8.698;2022-09-12T19:54:09;20.70;99.90
1570;DHT22;778;50.120;8.698;2022-09-12T19:56:38;20.70;99.90
1570;DHT22;778;50.120;8.698;2022-09-12T19:59:06;20.70;99.90
1570;DHT22;778;50.120;8.698;2022-09-12T20:01:35;20.70;99.90
1570;DHT22;778;50.120;8.698;2022-09-12T20:04:05;20.70;99.90
1570;DHT22;778;50.120;8.698;2022-09-12T20:06:34;20.60;99.90
1570;DHT22;778;50.120;8.698;2022-09-12T20:09:02;20.60;99.90
1570;DHT22;778;50.120;8.698;2022-09-12T20:11:31;20.50;99.90
1570;DHT22;778;50.120;8.698;2022-09-12T20:14:00;20.50;99.90
1570;DHT22;778;50.120;8.698;2022-09-12T20:16:28;20.40;99.90
1570;DHT22;778;50.120;8.698;2022-09-12T20:19:00;20.40;99.90
1570;DHT22;778;50.120;8.698;2022-09-12T20:21:34;20.30;99.90
1570;DHT22;778;50.120;8.698;2022-09-12T20:24:04;20.20;99.90
1570;DHT22;778;50.120;8.698;2022-09-12T20:26:34;20.20;99.90
1570;DHT22;778;50.120;8.698;2022-09-12T20:29:03;20.10;99.90
1570;DHT22;778;50.120;8.698;2022-09-12T20:31:34;20.00;99.90
1570;DHT22;778;50.120;8.698;2022-09-12T20:34:03;19.90;99.90
1570;DHT22;778;50.120;8.698;2022-09-12T20:36:33;19.90;99.90
1570;DHT22;778;50.120;8.698;2022-09-12T20:39:02;19.90;99.90
1570;DHT22;778;50.120;8.698;2022-09-12T20:41:32;19.80;99.90
1570;DHT22;778;50.120;8.698;2022-09-12T20:44:01;19.80;99.90
1570;DHT22;778;50.120;8.698;2022-09-12T20:46:30;19.80;99.90
1570;DHT22;778;50.120;8.698;2022-09-12T20:48:58;19.80;99.90
1570;DHT22;778;50.120;8.698;2022-09-12T20:51:27;19.80;99.90
1570;DHT22;778;50.120;8.698;2022-09-12T20:53:59;19.70;99.90
1570;DHT22;778;50.120;8.698;2022-09-12T20:56:30;19.60;99.90
1570;DHT22;778;50.120;8.698;2022-09-12T20:59:00;19.60;99.90
1570;DHT22;778;50.120;8.698;2022-09-12T21:01:29;19.60;99.90
1570;DHT22;778;50.120;8.698;2022-09-12T21:03:58;19.60;99.90
1570;DHT22;778;50.120;8.698;2022-09-12T21:06:27;19.50;99.90
1570;DHT22;778;50.120;8.698;2022-09-12T21:08:57;19.40;99.90
1570;DHT22;778;50.120;8.698;2022-09-12T21:11:26;19.40;99.90
1570;DHT22;778;50.120;8.698;2022-09-12T21:13:55;19.30;99.90
1570;DHT22;778;50.120;8.698;2022-09-12T21:16:24;19.20;99.90
1570;DHT22;778;50.120;8.698;2022-09-12T21:18:54;19.20;99.90
1570;DHT22;778;50.120;8.698;2022-09-12T21:21:24;19.20;99.90
1570;DHT22;778;50.120;8.698;2022-09-12T21:23:58;19.10;99.90
1570;DHT22;778;50.120;8.698;2022-09-12T21:26:26;19.10;99.90
1570;DHT22;778;50.120;8.698;2022-09-12T21:28:55;19.10;99.90
1570;DHT22;778;50.120;8.698;2022-09-12T21:31:24;19.10;99.90
1570;DHT22;778;50.120;8.698;2022-09-12T21:33:53;19.00;99.90
1570;DHT22;778;50.120;8.698;2022-09-12T21:36:22;19.00;99.90
1570;DHT22;778;50.120;8.698;2022-09-12T21:38:50;18.90;99.90
1570;DHT22;778;50.120;8.698;2022-09-12T21:41:20;18.90;99.90
1570;DHT22;778;50.120;8.698;2022-09-12T21:43:48;18.90;99.90
1570;DHT22;778;50.120;8.698;2022-09-12T21:46:17;18.80;99.90
1570;DHT22;778;50.120;8.698;2022-09-12T21:48:45;18.80;99.90
1570;DHT22;778;50.120;8.698;2022-09-12T21:51:14;18.80;99.90
1570;DHT22;778;50.120;8.698;2022-09-12T21:53:42;18.80;99.90
1570;DHT22;778;50.120;8.698;2022-09-12T21:56:10;18.70;99.90
1570;DHT22;778;50.120;8.698;2022-09-12T21:58:40;18.70;99.90
1570;DHT22;778;50.120;8.698;2022-09-12T22:01:10;18.70;99.90
1570;DHT22;778;50.120;8.698;2022-09-12T22:03:39;18.70;99.90
1570;DHT22;778;50.120;8.698;2022-09-12T22:06:08;18.70;99.90
1570;DHT22;778;50.120;8.698;2022-09-12T22:08:38;18.70;99.90
1570;DHT22;778;50.120;8.698;2022-09-12T22:11:07;18.70;99.90
1570;DHT22;778;50.120;8.698;2022-09-12T22:13:36;18.60;99.90
1570;DHT22;778;50.120;8.698;2022-09-12T22:16:07;18.60;99.90
1570;DHT22;778;50.120;8.698;2022-09-12T22:18:36;18.60;99.90
1570;DHT22;778;50.120;8.698;2022-09-12T22:21:06;18.50;99.90
1570;DHT22;778;50.120;8.698;2022-09-12T22:23:38;18.60;99.90
1570;DHT22;778;50.120;8.698;2022-09-12T22:26:24;18.50;99.90
1570;DHT22;778;50.120;8.698;2022-09-12T22:28:54;18.50;99.90
1570;DHT22;778;50.120;8.698;2022-09-12T22:31:24;18.50;99.90
1570;DHT22;778;50.120;8.698;2022-09-12T22:33:53;18.50;99.90
1570;DHT22;778;50.120;8.698;2022-09-12T22:36:23;18.50;99.90
1570;DHT22;778;50.120;8.698;2022-09-12T22:38:57;18.40;99.90
1570;DHT22;778;50.120;8.698;2022-09-12T22:41:25;18.40;99.90
1570;DHT22;778;50.120;8.698;2022-09-12T22:43:55;18.40;99.90
1570;DHT22;778;50.120;8.698;2022-09-12T22:46:25;18.40;99.90
1570;DHT22;778;50.120;8.698;2022-09-12T22:48:53;18.40;99.90
1570;DHT22;778;50.120;8.698;2022-09-12T22:51:23;18.40;99.90
1570;DHT22;778;50.120;8.698;2022-09-12T22:53:51;18.30;99.90
1570;DHT22;778;50.120;8.698;2022-09-12T22:56:19;18.30;99.90
1570;DHT22;778;50.120;8.698;2022-09-12T22:58:48;18.30;99.90
1570;DHT22;778;50.120;8.698;2022-09-12T23:01:16;18.40;99.90
1570;DHT22;778;50.120;8.698;2022-09-12T23:03:46;18.40;99.90
1570;DHT22;778;50.120;8.698;2022-09-12T23:06:16;18.30;99.90
1570;DHT22;778;50.120;8.698;2022-09-12T23:08:44;18.30;99.90
1570;DHT22;778;50.120;8.698;2022-09-12T23:11:15;18.30;99.90
1570;DHT22;778;50.120;8.698;2022-09-12T23:13:46;18.30;99.90
1570;DHT22;778;50.120;8.698;2022-09-12T23:16:17;18.20;99.90
1570;DHT22;778;50.120;8.698;2022-09-12T23:18:48;18.20;99.90
1570;DHT22;778;50.120;8.698;2022-09-12T23:21:18;18.20;99.90
1570;DHT22;778;50.120;8.698;2022-09-12T23:23:47;18.20;99.90
1570;DHT22;778;50.120;8.698;2022-09-12T23:26:17;18.20;99.90
1570;DHT22;778;50.120;8.698;2022-09-12T23:28:48;18.20;99.90
1570;DHT22;778;50.120;8.698;2022-09-12T23:31:17;18.10;99.90
1570;DHT22;778;50.120;8.698;2022-09-12T23:33:46;18.10;99.90
1570;DHT22;778;50.120;8.698;2022-09-12T23:36:15;17.90;99.90
1570;DHT22;778;50.120;8.698;2022-09-12T23:38:45;17.90;99.90
1570;DHT22;778;50.120;8.698;2022-09-12T23:41:15;17.90;99.90
1570;DHT22;778;50.120;8.698;2022-09-12T23:43:45;17.90;99.90
1570;DHT22;778;50.120;8.698;2022-09-12T23:46:15;18.00;99.90
1570;DHT22;778;50.120;8.698;2022-09-12T23:48:44;18.00;99.90
1570;DHT22;778;50.120;8.698;2022-09-12T23:51:14;18.10;99.90
1570;DHT22;778;50.120;8.698;2022-09-12T23:53:42;18.10;99.90
1570;DHT22;778;50.120;8.698;2022-09-12T23:56:11;18.10;99.90
1570;DHT22;778;50.120;8.698;2022-09-12T23:58:39;18.00;99.90
